sensor_id;sensor_type;location;lat;lon;timestamp;P1;durP1;ratioP1;P2;durP2;ratioP2
13687;SDS011;6916;51.504;7.416;2023-04-16T00:01:51;24.67;;;13.37;;
13687;SDS011;6916;51.504;7.416;2023-04-16T00:11:54;24.63;;;14.03;;
13687;SDS011;6916;51.504;7.416;2023-04-16T00:21:56;25.57;;;15.10;;
13687;SDS011;6916;51.504;7.416;2023-04-16T00:31:58;30.13;;;16.40;;
13687;SDS011;6916;51.504;7.416;2023-04-16T00:42:00;28.50;;;16.70;;
13687;SDS011;6916;51.504;7.416;2023-04-16T00:52:03;24.77;;;16.33;;
13687;SDS011;6916;51.504;7.416;2023-04-16T01:02:05;29.93;;;17.80;;
13687;SDS011;6916;51.504;7.416;2023-04-16T01:12:07;23.97;;;15.97;;
13687;SDS011;6916;51.504;7.416;2023-04-16T01:22:09;26.90;;;16.43;;
13687;SDS011;6916;51.504;7.416;2023-04-16T01:32:12;24.03;;;15.43;;
13687;SDS011;6916;51.504;7.416;2023-04-16T01:42:15;23.63;;;14.83;;
13687;SDS011;6916;51.504;7.416;2023-04-16T01:52:17;23.13;;;13.83;;
13687;SDS011;6916;51.504;7.416;2023-04-16T02:02:19;28.50;;;15.43;;
13687;SDS011;6916;51.504;7.416;2023-04-16T02:12:22;23.93;;;16.20;;
13687;SDS011;6916;51.504;7.416;2023-04-16T02:22:24;25.57;;;15.17;;
13687;SDS011;6916;51.504;7.416;2023-04-16T02:32:26;27.30;;;17.63;;
13687;SDS011;6916;51.504;7.416;2023-04-16T02:42:29;27.17;;;17.53;;
13687;SDS011;6916;51.504;7.416;2023-04-16T02:52:31;23.67;;;17.00;;
13687;SDS011;6916;51.504;7.416;2023-04-16T03:02:34;31.27;;;18.27;;
13687;SDS011;6916;51.504;7.416;2023-04-16T03:12:36;28.07;;;18.97;;
13687;SDS011;6916;51.504;7.416;2023-04-16T03:22:40;28.67;;;18.77;;
13687;SDS011;6916;51.504;7.416;2023-04-16T03:32:43;26.27;;;18.30;;
13687;SDS011;6916;51.504;7.416;2023-04-16T03:42:45;26.27;;;18.20;;
13687;SDS011;6916;51.504;7.416;2023-04-16T03:52:47;33.73;;;19.70;;
13687;SDS011;6916;51.504;7.416;2023-04-16T04:02:51;34.83;;;19.03;;
13687;SDS011;6916;51.504;7.416;2023-04-16T04:12:54;38.20;;;20.33;;
13687;SDS011;6916;51.504;7.416;2023-04-16T04:22:56;38.40;;;22.13;;
13687;SDS011;6916;51.504;7.416;2023-04-16T04:33:00;36.70;;;23.00;;
13687;SDS011;6916;51.504;7.416;2023-04-16T04:43:02;32.83;;;21.13;;
13687;SDS011;6916;51.504;7.416;2023-04-16T04:53:05;38.00;;;23.00;;
13687;SDS011;6916;51.504;7.416;2023-04-16T05:03:12;39.67;;;22.60;;
13687;SDS011;6916;51.504;7.416;2023-04-16T05:13:20;38.33;;;22.37;;
13687;SDS011;6916;51.504;7.416;2023-04-16T05:23:22;38.40;;;23.43;;
13687;SDS011;6916;51.504;7.416;2023-04-16T05:33:24;31.87;;;21.47;;
13687;SDS011;6916;51.504;7.416;2023-04-16T05:43:26;36.07;;;23.70;;
13687;SDS011;6916;51.504;7.416;2023-04-16T05:53:28;35.60;;;23.23;;
13687;SDS011;6916;51.504;7.416;2023-04-16T06:03:30;33.40;;;23.27;;
13687;SDS011;6916;51.504;7.416;2023-04-16T06:13:32;32.97;;;20.80;;
13687;SDS011;6916;51.504;7.416;2023-04-16T06:23:35;29.93;;;22.27;;
13687;SDS011;6916;51.504;7.416;2023-04-16T06:33:37;29.23;;;21.30;;
13687;SDS011;6916;51.504;7.416;2023-04-16T06:43:39;33.00;;;22.90;;
13687;SDS011;6916;51.504;7.416;2023-04-16T06:53:41;34.73;;;23.90;;
13687;SDS011;6916;51.504;7.416;2023-04-16T07:03:43;36.27;;;23.27;;
13687;SDS011;6916;51.504;7.416;2023-04-16T07:13:46;34.10;;;21.83;;
13687;SDS011;6916;51.504;7.416;2023-04-16T07:23:48;28.87;;;21.87;;
13687;SDS011;6916;51.504;7.416;2023-04-16T07:33:50;28.97;;;22.03;;
13687;SDS011;6916;51.504;7.416;2023-04-16T07:43:59;30.10;;;21.87;;
13687;SDS011;6916;51.504;7.416;2023-04-16T07:54:01;30.07;;;21.03;;
13687;SDS011;6916;51.504;7.416;2023-04-16T08:04:04;30.10;;;22.33;;
13687;SDS011;6916;51.504;7.416;2023-04-16T08:14:06;27.73;;;20.57;;
13687;SDS011;6916;51.504;7.416;2023-04-16T08:24:08;29.60;;;21.93;;
13687;SDS011;6916;51.504;7.416;2023-04-16T08:34:11;25.60;;;19.83;;
13687;SDS011;6916;51.504;7.416;2023-04-16T08:44:18;26.57;;;20.50;;
13687;SDS011;6916;51.504;7.416;2023-04-16T09:04:34;24.83;;;19.37;;
13687;SDS011;6916;51.504;7.416;2023-04-16T09:14:38;26.08;;;20.60;;
13687;SDS011;6916;51.504;7.416;2023-04-16T09:24:42;26.70;;;20.40;;
13687;SDS011;6916;51.504;7.416;2023-04-16T09:34:58;25.53;;;19.60;;
13687;SDS011;6916;51.504;7.416;2023-04-16T09:45:03;24.87;;;19.37;;
13687;SDS011;6916;51.504;7.416;2023-04-16T09:55:07;24.47;;;20.23;;
13687;SDS011;6916;51.504;7.416;2023-04-16T10:05:09;25.53;;;20.17;;
13687;SDS011;6916;51.504;7.416;2023-04-16T10:15:17;23.25;;;19.50;;
13687;SDS011;6916;51.504;7.416;2023-04-16T10:25:19;22.50;;;18.87;;
13687;SDS011;6916;51.504;7.416;2023-04-16T10:35:24;23.40;;;19.13;;
13687;SDS011;6916;51.504;7.416;2023-04-16T10:45:30;23.30;;;17.52;;
13687;SDS011;6916;51.504;7.416;2023-04-16T10:55:36;28.20;;;18.73;;
13687;SDS011;6916;51.504;7.416;2023-04-16T11:05:44;22.08;;;18.23;;
13687;SDS011;6916;51.504;7.416;2023-04-16T11:15:47;20.38;;;18.15;;
13687;SDS011;6916;51.504;7.416;2023-04-16T11:25:50;21.42;;;18.38;;
13687;SDS011;6916;51.504;7.416;2023-04-16T11:35:57;18.02;;;15.93;;
13687;SDS011;6916;51.504;7.416;2023-04-16T11:46:04;18.48;;;15.68;;
13687;SDS011;6916;51.504;7.416;2023-04-16T11:56:30;15.63;;;13.70;;
13687;SDS011;6916;51.504;7.416;2023-04-16T12:06:36;14.48;;;12.98;;
13687;SDS011;6916;51.504;7.416;2023-04-16T12:16:38;14.20;;;12.70;;
13687;SDS011;6916;51.504;7.416;2023-04-16T12:26:42;16.45;;;13.30;;
13687;SDS011;6916;51.504;7.416;2023-04-16T12:37:01;13.60;;;12.18;;
13687;SDS011;6916;51.504;7.416;2023-04-16T12:47:05;14.27;;;12.77;;
13687;SDS011;6916;51.504;7.416;2023-04-16T12:57:07;14.60;;;12.98;;
13687;SDS011;6916;51.504;7.416;2023-04-16T13:07:09;14.27;;;12.73;;
13687;SDS011;6916;51.504;7.416;2023-04-16T13:17:12;15.20;;;12.63;;
13687;SDS011;6916;51.504;7.416;2023-04-16T13:27:14;17.27;;;13.65;;
13687;SDS011;6916;51.504;7.416;2023-04-16T13:37:17;15.63;;;13.27;;
13687;SDS011;6916;51.504;7.416;2023-04-16T13:47:20;14.75;;;12.52;;
13687;SDS011;6916;51.504;7.416;2023-04-16T13:57:24;14.98;;;12.85;;
13687;SDS011;6916;51.504;7.416;2023-04-16T14:07:26;15.18;;;11.98;;
13687;SDS011;6916;51.504;7.416;2023-04-16T14:17:30;11.97;;;10.67;;
13687;SDS011;6916;51.504;7.416;2023-04-16T14:27:32;13.70;;;11.17;;
13687;SDS011;6916;51.504;7.416;2023-04-16T14:37:35;13.05;;;10.68;;
13687;SDS011;6916;51.504;7.416;2023-04-16T14:47:37;13.85;;;10.32;;
13687;SDS011;6916;51.504;7.416;2023-04-16T14:57:47;11.85;;;10.55;;
13687;SDS011;6916;51.504;7.416;2023-04-16T15:07:49;13.52;;;11.15;;
13687;SDS011;6916;51.504;7.416;2023-04-16T15:17:52;12.15;;;10.35;;
13687;SDS011;6916;51.504;7.416;2023-04-16T15:27:54;12.50;;;10.73;;
13687;SDS011;6916;51.504;7.416;2023-04-16T15:37:56;11.63;;;10.18;;
13687;SDS011;6916;51.504;7.416;2023-04-16T15:47:59;11.15;;;10.02;;
13687;SDS011;6916;51.504;7.416;2023-04-16T15:58:01;10.93;;;9.35;;
13687;SDS011;6916;51.504;7.416;2023-04-16T16:08:04;9.67;;;8.07;;
13687;SDS011;6916;51.504;7.416;2023-04-16T16:18:13;9.07;;;8.13;;
13687;SDS011;6916;51.504;7.416;2023-04-16T16:28:15;9.13;;;8.20;;
13687;SDS011;6916;51.504;7.416;2023-04-16T16:38:17;11.85;;;8.98;;
13687;SDS011;6916;51.504;7.416;2023-04-16T16:48:20;14.00;;;8.60;;
13687;SDS011;6916;51.504;7.416;2023-04-16T16:58:22;9.93;;;7.97;;
13687;SDS011;6916;51.504;7.416;2023-04-16T17:08:25;10.63;;;8.83;;
13687;SDS011;6916;51.504;7.416;2023-04-16T17:18:27;10.10;;;8.48;;
13687;SDS011;6916;51.504;7.416;2023-04-16T17:28:29;10.57;;;9.30;;
13687;SDS011;6916;51.504;7.416;2023-04-16T17:38:31;12.27;;;9.13;;
13687;SDS011;6916;51.504;7.416;2023-04-16T17:48:34;12.95;;;9.68;;
13687;SDS011;6916;51.504;7.416;2023-04-16T17:58:36;10.90;;;9.53;;
13687;SDS011;6916;51.504;7.416;2023-04-16T18:08:39;12.30;;;10.40;;
13687;SDS011;6916;51.504;7.416;2023-04-16T18:18:41;12.65;;;10.45;;
13687;SDS011;6916;51.504;7.416;2023-04-16T18:28:44;13.63;;;10.33;;
13687;SDS011;6916;51.504;7.416;2023-04-16T18:38:46;14.38;;;10.75;;
13687;SDS011;6916;51.504;7.416;2023-04-16T18:49:02;13.82;;;11.02;;
13687;SDS011;6916;51.504;7.416;2023-04-16T18:59:04;12.13;;;10.75;;
13687;SDS011;6916;51.504;7.416;2023-04-16T19:09:07;12.98;;;10.90;;
13687;SDS011;6916;51.504;7.416;2023-04-16T19:19:12;14.30;;;11.23;;
13687;SDS011;6916;51.504;7.416;2023-04-16T19:29:14;16.60;;;13.45;;
13687;SDS011;6916;51.504;7.416;2023-04-16T19:39:18;19.27;;;15.40;;
13687;SDS011;6916;51.504;7.416;2023-04-16T19:49:20;24.43;;;17.33;;
13687;SDS011;6916;51.504;7.416;2023-04-16T19:59:23;21.98;;;15.60;;
13687;SDS011;6916;51.504;7.416;2023-04-16T20:09:29;22.35;;;16.98;;
13687;SDS011;6916;51.504;7.416;2023-04-16T20:19:31;26.37;;;18.50;;
13687;SDS011;6916;51.504;7.416;2023-04-16T20:29:39;23.83;;;17.40;;
13687;SDS011;6916;51.504;7.416;2023-04-16T20:39:42;24.73;;;17.60;;
13687;SDS011;6916;51.504;7.416;2023-04-16T20:49:45;27.17;;;18.43;;
13687;SDS011;6916;51.504;7.416;2023-04-16T20:59:48;28.90;;;18.92;;
13687;SDS011;6916;51.504;7.416;2023-04-16T21:09:50;27.83;;;19.67;;
13687;SDS011;6916;51.504;7.416;2023-04-16T21:19:52;27.52;;;18.90;;
13687;SDS011;6916;51.504;7.416;2023-04-16T21:29:54;25.37;;;19.90;;
13687;SDS011;6916;51.504;7.416;2023-04-16T21:39:56;25.53;;;19.93;;
13687;SDS011;6916;51.504;7.416;2023-04-16T21:49:58;25.97;;;19.63;;
13687;SDS011;6916;51.504;7.416;2023-04-16T22:00:01;26.63;;;20.47;;
13687;SDS011;6916;51.504;7.416;2023-04-16T22:10:05;29.40;;;19.75;;
13687;SDS011;6916;51.504;7.416;2023-04-16T22:20:09;30.17;;;20.73;;
13687;SDS011;6916;51.504;7.416;2023-04-16T22:30:14;25.58;;;19.55;;
13687;SDS011;6916;51.504;7.416;2023-04-16T22:40:16;25.53;;;18.40;;
13687;SDS011;6916;51.504;7.416;2023-04-16T22:50:18;24.13;;;17.88;;
13687;SDS011;6916;51.504;7.416;2023-04-16T23:00:21;23.37;;;17.87;;
13687;SDS011;6916;51.504;7.416;2023-04-16T23:10:23;26.53;;;18.80;;
13687;SDS011;6916;51.504;7.416;2023-04-16T23:20:25;24.67;;;18.07;;
13687;SDS011;6916;51.504;7.416;2023-04-16T23:30:29;21.13;;;18.53;;
13687;SDS011;6916;51.504;7.416;2023-04-16T23:40:31;23.10;;;19.53;;
13687;SDS011;6916;51.504;7.416;2023-04-16T23:50:34;26.60;;;19.77;;
